sensor_id;sensor_type;location;lat;lon;timestamp;pressure;altitude;pressure_sealevel;temperature;humidity
73063;BME280;61230;46.328;19.972;2023-06-04T00:01:52;100793.66;;;12.32;77.33
73063;BME280;61230;46.328;19.972;2023-06-04T00:04:20;100794.66;;;12.31;78.14
73063;BME280;61230;46.328;19.972;2023-06-04T00:06:50;100798.53;;;12.27;78.49
73063;BME280;61230;46.328;19.972;2023-06-04T00:09:18;100802.75;;;12.20;78.44
73063;BME280;61230;46.328;19.972;2023-06-04T00:11:45;100803.59;;;12.20;78.90
73063;BME280;61230;46.328;19.972;2023-06-04T00:14:14;100803.59;;;12.10;79.60
73063;BME280;61230;46.328;19.972;2023-06-04T00:16:42;100749.47;;;11.78;79.34
73063;BME280;61230;46.328;19.972;2023-06-04T00:19:10;100792.19;;;12.00;78.99
73063;BME280;61230;46.328;19.972;2023-06-04T00:21:38;100799.03;;;12.03;78.44
73063;BME280;61230;46.328;19.972;2023-06-04T00:24:05;100796.09;;;11.96;77.97
73063;BME280;61230;46.328;19.972;2023-06-04T00:26:33;100796.78;;;11.98;78.00
73063;BME280;61230;46.328;19.972;2023-06-04T00:29:01;100806.50;;;11.98;79.26
73063;BME280;61230;46.328;19.972;2023-06-04T00:31:29;100803.75;;;11.99;79.45
73063;BME280;61230;46.328;19.972;2023-06-04T00:33:57;100804.84;;;11.97;79.12
73063;BME280;61230;46.328;19.972;2023-06-04T00:36:24;100795.12;;;11.78;77.63
73063;BME280;61230;46.328;19.972;2023-06-04T00:38:52;100747.22;;;11.64;76.12
73063;BME280;61230;46.328;19.972;2023-06-04T00:41:20;100799.81;;;12.03;78.21
73063;BME280;61230;46.328;19.972;2023-06-04T00:43:48;100799.16;;;12.01;76.17
73063;BME280;61230;46.328;19.972;2023-06-04T00:46:27;100753.22;;;11.75;77.38
73063;BME280;61230;46.328;19.972;2023-06-04T00:48:55;100780.56;;;11.93;78.46
73063;BME280;61230;46.328;19.972;2023-06-04T00:51:23;100803.59;;;12.01;78.05
73063;BME280;61230;46.328;19.972;2023-06-04T00:53:52;100798.59;;;11.98;72.88
73063;BME280;61230;46.328;19.972;2023-06-04T00:56:20;100777.38;;;11.90;74.63
73063;BME280;61230;46.328;19.972;2023-06-04T00:58:48;100745.03;;;11.78;72.86
73063;BME280;61230;46.328;19.972;2023-06-04T01:01:34;100794.28;;;12.06;73.88
73063;BME280;61230;46.328;19.972;2023-06-04T01:04:11;100799.72;;;12.05;75.31
73063;BME280;61230;46.328;19.972;2023-06-04T01:06:43;100755.03;;;11.84;75.19
73063;BME280;61230;46.328;19.972;2023-06-04T01:09:12;100793.47;;;12.06;74.35
73063;BME280;61230;46.328;19.972;2023-06-04T01:11:41;100799.16;;;12.11;74.46
73063;BME280;61230;46.328;19.972;2023-06-04T01:14:09;100750.59;;;11.85;74.53
73063;BME280;61230;46.328;19.972;2023-06-04T01:17:41;100763.94;;;11.83;75.90
73063;BME280;61230;46.328;19.972;2023-06-04T01:22:38;100802.75;;;12.00;76.28
73063;BME280;61230;46.328;19.972;2023-06-04T01:25:45;100808.47;;;12.05;76.61
73063;BME280;61230;46.328;19.972;2023-06-04T01:28:13;100761.72;;;11.69;76.99
73063;BME280;61230;46.328;19.972;2023-06-04T01:30:45;100809.28;;;11.96;77.72
73063;BME280;61230;46.328;19.972;2023-06-04T01:33:16;100803.59;;;11.91;78.08
73063;BME280;61230;46.328;19.972;2023-06-04T01:35:44;100749.59;;;11.47;78.05
73063;BME280;61230;46.328;19.972;2023-06-04T01:38:12;100797.44;;;11.43;78.44
73063;BME280;61230;46.328;19.972;2023-06-04T01:40:39;100803.00;;;11.40;79.61
73063;BME280;61230;46.328;19.972;2023-06-04T01:43:08;100813.56;;;11.59;78.99
73063;BME280;61230;46.328;19.972;2023-06-04T01:45:36;100808.12;;;11.51;78.24
73063;BME280;61230;46.328;19.972;2023-06-04T01:48:04;100810.22;;;11.57;78.11
73063;BME280;61230;46.328;19.972;2023-06-04T01:50:33;100804.53;;;11.62;80.32
73063;BME280;61230;46.328;19.972;2023-06-04T01:53:00;100812.03;;;11.66;81.40
73063;BME280;61230;46.328;19.972;2023-06-04T01:55:28;100810.37;;;11.65;80.53
73063;BME280;61230;46.328;19.972;2023-06-04T01:58:01;100812.59;;;11.60;80.96
73063;BME280;61230;46.328;19.972;2023-06-04T02:00:28;100805.63;;;11.49;81.90
73063;BME280;61230;46.328;19.972;2023-06-04T02:02:56;100803.28;;;11.56;81.24
73063;BME280;61230;46.328;19.972;2023-06-04T02:05:24;100809.38;;;11.47;81.85
73063;BME280;61230;46.328;19.972;2023-06-04T02:07:52;100808.84;;;11.43;81.77
73063;BME280;61230;46.328;19.972;2023-06-04T02:10:20;100816.44;;;11.37;82.42
73063;BME280;61230;46.328;19.972;2023-06-04T02:12:55;100824.91;;;11.40;83.39
73063;BME280;61230;46.328;19.972;2023-06-04T02:15:25;100823.78;;;11.33;84.07
73063;BME280;61230;46.328;19.972;2023-06-04T02:17:56;100830.94;;;11.22;84.13
73063;BME280;61230;46.328;19.972;2023-06-04T02:20:27;100830.16;;;11.31;83.17
73063;BME280;61230;46.328;19.972;2023-06-04T02:22:55;100827.37;;;11.23;83.01
73063;BME280;61230;46.328;19.972;2023-06-04T02:25:23;100827.06;;;11.16;81.32
73063;BME280;61230;46.328;19.972;2023-06-04T02:27:51;100828.12;;;11.04;83.52
73063;BME280;61230;46.328;19.972;2023-06-04T02:30:19;100829.75;;;10.95;82.68
73063;BME280;61230;46.328;19.972;2023-06-04T02:32:47;100826.31;;;10.95;82.50
73063;BME280;61230;46.328;19.972;2023-06-04T02:35:20;100824.78;;;11.02;82.59
73063;BME280;61230;46.328;19.972;2023-06-04T02:37:50;100829.47;;;10.89;82.30
73063;BME280;61230;46.328;19.972;2023-06-04T02:40:18;100787.00;;;10.73;82.65
73063;BME280;61230;46.328;19.972;2023-06-04T02:42:46;100827.03;;;11.07;84.33
73063;BME280;61230;46.328;19.972;2023-06-04T02:45:14;100838.97;;;11.11;83.94
73063;BME280;61230;46.328;19.972;2023-06-04T02:47:41;100839.63;;;11.03;84.48
73063;BME280;61230;46.328;19.972;2023-06-04T02:50:10;100839.06;;;11.00;85.09
73063;BME280;61230;46.328;19.972;2023-06-04T02:52:38;100790.28;;;10.65;84.16
73063;BME280;61230;46.328;19.972;2023-06-04T02:55:11;100839.56;;;10.84;84.50
73063;BME280;61230;46.328;19.972;2023-06-04T02:57:41;100840.75;;;11.01;84.11
73063;BME280;61230;46.328;19.972;2023-06-04T03:00:11;100843.50;;;10.99;86.38
73063;BME280;61230;46.328;19.972;2023-06-04T03:02:41;100840.84;;;10.99;86.00
73063;BME280;61230;46.328;19.972;2023-06-04T03:05:11;100838.09;;;11.01;84.62
73063;BME280;61230;46.328;19.972;2023-06-04T03:07:42;100836.16;;;11.03;84.92
73063;BME280;61230;46.328;19.972;2023-06-04T03:10:12;100829.59;;;10.87;85.56
73063;BME280;61230;46.328;19.972;2023-06-04T03:12:40;100824.22;;;10.38;89.00
73063;BME280;61230;46.328;19.972;2023-06-04T03:15:08;100826.78;;;10.49;88.31
73063;BME280;61230;46.328;19.972;2023-06-04T03:17:37;100829.75;;;10.56;86.72
73063;BME280;61230;46.328;19.972;2023-06-04T03:20:06;100822.22;;;10.51;86.24
73063;BME280;61230;46.328;19.972;2023-06-04T03:22:34;100835.97;;;10.64;86.15
73063;BME280;61230;46.328;19.972;2023-06-04T03:25:04;100824.41;;;10.76;88.67
73063;BME280;61230;46.328;19.972;2023-06-04T03:27:33;100832.38;;;10.86;86.59
73063;BME280;61230;46.328;19.972;2023-06-04T03:30:01;100832.47;;;10.84;84.80
73063;BME280;61230;46.328;19.972;2023-06-04T03:32:33;100838.53;;;11.06;87.25
73063;BME280;61230;46.328;19.972;2023-06-04T03:35:01;100843.37;;;11.10;87.15
73063;BME280;61230;46.328;19.972;2023-06-04T03:37:32;100846.06;;;11.20;86.31
73063;BME280;61230;46.328;19.972;2023-06-04T03:40:00;100802.34;;;11.08;85.79
73063;BME280;61230;46.328;19.972;2023-06-04T03:42:34;100844.03;;;11.42;84.35
73063;BME280;61230;46.328;19.972;2023-06-04T03:45:02;100840.72;;;11.50;83.61
73063;BME280;61230;46.328;19.972;2023-06-04T03:47:30;100846.72;;;11.52;83.43
73063;BME280;61230;46.328;19.972;2023-06-04T03:49:58;100848.94;;;11.57;82.91
73063;BME280;61230;46.328;19.972;2023-06-04T03:52:26;100845.88;;;11.61;83.53
73063;BME280;61230;46.328;19.972;2023-06-04T03:54:55;100852.59;;;11.75;83.12
73063;BME280;61230;46.328;19.972;2023-06-04T03:57:22;100806.72;;;11.47;82.09
73063;BME280;61230;46.328;19.972;2023-06-04T03:59:52;100843.56;;;11.96;81.63
73063;BME280;61230;46.328;19.972;2023-06-04T04:02:19;100809.03;;;11.80;80.92
73063;BME280;61230;46.328;19.972;2023-06-04T04:04:48;100864.53;;;12.07;81.77
73063;BME280;61230;46.328;19.972;2023-06-04T04:07:15;100866.63;;;12.14;80.93
73063;BME280;61230;46.328;19.972;2023-06-04T04:09:44;100866.19;;;12.28;79.82
73063;BME280;61230;46.328;19.972;2023-06-04T04:12:12;100865.31;;;12.46;79.46
73063;BME280;61230;46.328;19.972;2023-06-04T04:14:40;100870.87;;;12.53;78.48
73063;BME280;61230;46.328;19.972;2023-06-04T04:17:07;100872.38;;;12.65;75.42
73063;BME280;61230;46.328;19.972;2023-06-04T04:19:35;100825.47;;;12.40;74.03
73063;BME280;61230;46.328;19.972;2023-06-04T04:22:03;100877.31;;;12.87;73.68
73063;BME280;61230;46.328;19.972;2023-06-04T04:24:31;100878.69;;;12.91;73.77
73063;BME280;61230;46.328;19.972;2023-06-04T04:27:02;100876.69;;;13.12;75.91
73063;BME280;61230;46.328;19.972;2023-06-04T04:29:31;100872.06;;;13.14;70.69
73063;BME280;61230;46.328;19.972;2023-06-04T04:32:02;100882.94;;;13.11;70.85
73063;BME280;61230;46.328;19.972;2023-06-04T04:34:38;100885.09;;;13.25;69.78
73063;BME280;61230;46.328;19.972;2023-06-04T04:37:19;100892.16;;;13.35;69.66
73063;BME280;61230;46.328;19.972;2023-06-04T04:39:49;100879.09;;;13.33;69.45
73063;BME280;61230;46.328;19.972;2023-06-04T04:42:20;100893.38;;;13.40;68.96
73063;BME280;61230;46.328;19.972;2023-06-04T04:44:49;100895.59;;;13.45;68.69
73063;BME280;61230;46.328;19.972;2023-06-04T04:47:18;100885.78;;;13.55;68.40
73063;BME280;61230;46.328;19.972;2023-06-04T04:49:46;100899.28;;;13.79;66.34
73063;BME280;61230;46.328;19.972;2023-06-04T04:52:17;100896.56;;;13.89;66.80
73063;BME280;61230;46.328;19.972;2023-06-04T04:54:44;100895.19;;;14.20;66.42
73063;BME280;61230;46.328;19.972;2023-06-04T04:57:12;100898.37;;;14.23;65.68
73063;BME280;61230;46.328;19.972;2023-06-04T04:59:41;100883.97;;;14.35;65.06
73063;BME280;61230;46.328;19.972;2023-06-04T05:02:09;100844.38;;;14.16;65.15
73063;BME280;61230;46.328;19.972;2023-06-04T05:04:37;100875.50;;;14.58;64.29
73063;BME280;61230;46.328;19.972;2023-06-04T05:07:05;100882.59;;;14.75;63.72
73063;BME280;61230;46.328;19.972;2023-06-04T05:09:32;100883.72;;;14.72;62.97
73063;BME280;61230;46.328;19.972;2023-06-04T05:12:00;100888.44;;;14.86;63.68
73063;BME280;61230;46.328;19.972;2023-06-04T05:14:30;100840.44;;;14.89;62.00
73063;BME280;61230;46.328;19.972;2023-06-04T05:16:59;100891.16;;;15.36;61.29
73063;BME280;61230;46.328;19.972;2023-06-04T05:19:27;100887.31;;;15.73;61.43
73063;BME280;61230;46.328;19.972;2023-06-04T05:21:54;100884.81;;;15.55;59.54
73063;BME280;61230;46.328;19.972;2023-06-04T05:24:22;100886.22;;;15.83;59.44
73063;BME280;61230;46.328;19.972;2023-06-04T05:26:50;100891.03;;;16.04;58.07
73063;BME280;61230;46.328;19.972;2023-06-04T05:29:18;100892.56;;;16.31;58.41
73063;BME280;61230;46.328;19.972;2023-06-04T05:31:45;100896.53;;;16.51;57.57
73063;BME280;61230;46.328;19.972;2023-06-04T05:34:14;100895.19;;;16.47;57.42
73063;BME280;61230;46.328;19.972;2023-06-04T05:36:44;100899.53;;;16.56;56.88
73063;BME280;61230;46.328;19.972;2023-06-04T05:39:11;100859.34;;;16.51;55.77
73063;BME280;61230;46.328;19.972;2023-06-04T05:41:40;100904.69;;;16.65;55.84
73063;BME280;61230;46.328;19.972;2023-06-04T05:44:08;100900.38;;;16.64;57.06
73063;BME280;61230;46.328;19.972;2023-06-04T05:46:36;100903.19;;;16.71;56.55
73063;BME280;61230;46.328;19.972;2023-06-04T05:49:04;100902.81;;;16.90;55.43
73063;BME280;61230;46.328;19.972;2023-06-04T05:51:32;100893.53;;;16.78;55.07
73063;BME280;61230;46.328;19.972;2023-06-04T05:53:59;100900.63;;;17.02;54.23
73063;BME280;61230;46.328;19.972;2023-06-04T05:56:28;100903.72;;;17.21;53.99
73063;BME280;61230;46.328;19.972;2023-06-04T05:58:56;100902.41;;;17.17;53.30
73063;BME280;61230;46.328;19.972;2023-06-04T06:01:23;100903.09;;;17.11;53.59
73063;BME280;61230;46.328;19.972;2023-06-04T06:03:51;100900.56;;;17.18;53.81
73063;BME280;61230;46.328;19.972;2023-06-04T06:06:20;100909.88;;;17.22;53.73
73063;BME280;61230;46.328;19.972;2023-06-04T06:08:48;100915.09;;;17.46;53.70
73063;BME280;61230;46.328;19.972;2023-06-04T06:11:17;100863.78;;;16.91;55.16
73063;BME280;61230;46.328;19.972;2023-06-04T06:13:45;100867.59;;;17.35;54.13
73063;BME280;61230;46.328;19.972;2023-06-04T06:16:13;100899.16;;;17.38;53.08
73063;BME280;61230;46.328;19.972;2023-06-04T06:18:41;100890.66;;;17.82;52.70
73063;BME280;61230;46.328;19.972;2023-06-04T06:21:08;100866.41;;;17.76;51.13
73063;BME280;61230;46.328;19.972;2023-06-04T06:23:37;100874.41;;;17.76;51.69
73063;BME280;61230;46.328;19.972;2023-06-04T06:26:05;100915.97;;;17.77;51.92
73063;BME280;61230;46.328;19.972;2023-06-04T06:28:37;100921.13;;;17.79;52.69
73063;BME280;61230;46.328;19.972;2023-06-04T06:31:05;100928.81;;;17.97;51.48
73063;BME280;61230;46.328;19.972;2023-06-04T06:33:33;100931.97;;;18.00;51.54
73063;BME280;61230;46.328;19.972;2023-06-04T06:36:01;100933.53;;;18.17;51.57
73063;BME280;61230;46.328;19.972;2023-06-04T06:38:29;100933.09;;;18.28;50.72
73063;BME280;61230;46.328;19.972;2023-06-04T06:40:59;100928.63;;;18.52;51.04
73063;BME280;61230;46.328;19.972;2023-06-04T06:43:26;100937.09;;;18.10;51.36
73063;BME280;61230;46.328;19.972;2023-06-04T06:45:54;100913.03;;;18.63;49.82
73063;BME280;61230;46.328;19.972;2023-06-04T06:48:22;100928.00;;;19.16;49.58
73063;BME280;61230;46.328;19.972;2023-06-04T06:50:49;100924.72;;;19.43;48.69
73063;BME280;61230;46.328;19.972;2023-06-04T06:53:17;100929.09;;;19.22;46.97
73063;BME280;61230;46.328;19.972;2023-06-04T06:55:45;100925.16;;;19.03;47.18
73063;BME280;61230;46.328;19.972;2023-06-04T06:58:12;100928.84;;;19.61;46.77
73063;BME280;61230;46.328;19.972;2023-06-04T07:00:40;100929.94;;;19.52;47.64
73063;BME280;61230;46.328;19.972;2023-06-04T07:03:08;100933.06;;;19.26;45.91
73063;BME280;61230;46.328;19.972;2023-06-04T07:05:35;100933.88;;;19.70;46.46
73063;BME280;61230;46.328;19.972;2023-06-04T07:08:03;100933.28;;;20.25;45.71
73063;BME280;61230;46.328;19.972;2023-06-04T07:10:31;100932.31;;;20.54;45.11
73063;BME280;61230;46.328;19.972;2023-06-04T07:12:58;100934.16;;;20.81;45.28
73063;BME280;61230;46.328;19.972;2023-06-04T07:15:26;100940.41;;;20.88;44.49
73063;BME280;61230;46.328;19.972;2023-06-04T07:17:54;100938.97;;;20.22;45.68
73063;BME280;61230;46.328;19.972;2023-06-04T07:20:21;100935.13;;;20.46;44.77
73063;BME280;61230;46.328;19.972;2023-06-04T07:22:49;100923.84;;;20.29;45.17
73063;BME280;61230;46.328;19.972;2023-06-04T07:25:17;100931.69;;;20.31;42.99
73063;BME280;61230;46.328;19.972;2023-06-04T07:27:45;100919.34;;;20.30;43.21
73063;BME280;61230;46.328;19.972;2023-06-04T07:30:13;100918.41;;;20.65;43.69
73063;BME280;61230;46.328;19.972;2023-06-04T07:32:40;100887.41;;;21.05;43.42
73063;BME280;61230;46.328;19.972;2023-06-04T07:35:08;100891.16;;;21.45;43.61
73063;BME280;61230;46.328;19.972;2023-06-04T07:37:36;100894.09;;;21.56;43.68
73063;BME280;61230;46.328;19.972;2023-06-04T07:40:04;100930.12;;;22.14;42.65
73063;BME280;61230;46.328;19.972;2023-06-04T07:42:32;100926.03;;;22.31;40.97
73063;BME280;61230;46.328;19.972;2023-06-04T07:44:59;100922.09;;;22.34;39.78
73063;BME280;61230;46.328;19.972;2023-06-04T07:47:29;100922.53;;;22.24;39.78
73063;BME280;61230;46.328;19.972;2023-06-04T07:49:56;100929.16;;;22.68;39.15
73063;BME280;61230;46.328;19.972;2023-06-04T07:52:30;100922.97;;;22.80;39.46
73063;BME280;61230;46.328;19.972;2023-06-04T07:55:00;100893.25;;;22.29;36.57
73063;BME280;61230;46.328;19.972;2023-06-04T07:57:27;100927.09;;;22.50;35.70
73063;BME280;61230;46.328;19.972;2023-06-04T07:59:55;100924.59;;;22.55;35.22
73063;BME280;61230;46.328;19.972;2023-06-04T08:02:24;100922.59;;;22.70;35.70
73063;BME280;61230;46.328;19.972;2023-06-04T08:04:52;100910.50;;;23.25;35.92
73063;BME280;61230;46.328;19.972;2023-06-04T08:07:20;100924.69;;;23.52;35.95
73063;BME280;61230;46.328;19.972;2023-06-04T08:09:47;100924.03;;;23.63;35.08
73063;BME280;61230;46.328;19.972;2023-06-04T08:12:16;100914.44;;;23.80;34.61
73063;BME280;61230;46.328;19.972;2023-06-04T08:14:43;100919.38;;;23.26;33.13
73063;BME280;61230;46.328;19.972;2023-06-04T08:17:11;100914.78;;;23.33;33.37
73063;BME280;61230;46.328;19.972;2023-06-04T08:19:39;100916.97;;;22.92;32.41
73063;BME280;61230;46.328;19.972;2023-06-04T08:22:06;100914.72;;;22.69;33.37
73063;BME280;61230;46.328;19.972;2023-06-04T08:24:34;100917.47;;;23.53;33.40
73063;BME280;61230;46.328;19.972;2023-06-04T08:27:02;100884.31;;;23.65;33.55
73063;BME280;61230;46.328;19.972;2023-06-04T08:29:29;100914.75;;;23.97;32.72
73063;BME280;61230;46.328;19.972;2023-06-04T08:31:57;100915.28;;;23.81;32.74
73063;BME280;61230;46.328;19.972;2023-06-04T08:34:25;100925.31;;;23.54;33.04
73063;BME280;61230;46.328;19.972;2023-06-04T08:36:52;100920.44;;;23.18;32.05
73063;BME280;61230;46.328;19.972;2023-06-04T08:39:20;100918.69;;;23.57;31.60
73063;BME280;61230;46.328;19.972;2023-06-04T08:41:56;100927.50;;;24.08;32.54
73063;BME280;61230;46.328;19.972;2023-06-04T08:44:27;100914.91;;;24.40;31.00
73063;BME280;61230;46.328;19.972;2023-06-04T08:47:01;100888.44;;;24.12;30.66
73063;BME280;61230;46.328;19.972;2023-06-04T08:49:34;100920.41;;;24.76;29.32
73063;BME280;61230;46.328;19.972;2023-06-04T08:52:04;100878.22;;;24.45;28.31
73063;BME280;61230;46.328;19.972;2023-06-04T08:54:33;100922.13;;;25.13;29.05
73063;BME280;61230;46.328;19.972;2023-06-04T08:57:01;100919.47;;;25.50;29.65
73063;BME280;61230;46.328;19.972;2023-06-04T08:59:30;100914.87;;;25.32;28.89
73063;BME280;61230;46.328;19.972;2023-06-04T09:01:58;100915.75;;;25.26;27.85
73063;BME280;61230;46.328;19.972;2023-06-04T09:04:26;100882.22;;;25.40;28.16
73063;BME280;61230;46.328;19.972;2023-06-04T09:06:54;100921.13;;;25.81;28.00
73063;BME280;61230;46.328;19.972;2023-06-04T09:09:23;100922.56;;;25.47;28.12
73063;BME280;61230;46.328;19.972;2023-06-04T09:11:52;100919.47;;;25.68;28.32
73063;BME280;61230;46.328;19.972;2023-06-04T09:14:21;100926.91;;;25.30;28.88
73063;BME280;61230;46.328;19.972;2023-06-04T09:16:49;100919.59;;;25.55;28.50
73063;BME280;61230;46.328;19.972;2023-06-04T09:19:18;100923.88;;;25.62;27.34
73063;BME280;61230;46.328;19.972;2023-06-04T09:21:59;100930.50;;;25.78;26.72
73063;BME280;61230;46.328;19.972;2023-06-04T09:24:43;100919.69;;;25.96;26.65
73063;BME280;61230;46.328;19.972;2023-06-04T09:27:18;100932.31;;;26.14;27.14
73063;BME280;61230;46.328;19.972;2023-06-04T09:30:04;100897.19;;;25.73;26.94
73063;BME280;61230;46.328;19.972;2023-06-04T09:32:31;100917.41;;;25.82;26.75
73063;BME280;61230;46.328;19.972;2023-06-04T09:35:11;100920.91;;;26.42;27.37
73063;BME280;61230;46.328;19.972;2023-06-04T09:37:41;100901.28;;;26.46;27.11
73063;BME280;61230;46.328;19.972;2023-06-04T09:40:09;100913.56;;;26.83;27.16
73063;BME280;61230;46.328;19.972;2023-06-04T09:42:44;100914.09;;;26.74;26.75
73063;BME280;61230;46.328;19.972;2023-06-04T09:45:12;100922.97;;;26.93;27.14
73063;BME280;61230;46.328;19.972;2023-06-04T09:47:43;100916.25;;;26.95;26.99
73063;BME280;61230;46.328;19.972;2023-06-04T09:50:11;100914.97;;;26.98;26.86
73063;BME280;61230;46.328;19.972;2023-06-04T09:52:39;100918.97;;;26.83;26.59
73063;BME280;61230;46.328;19.972;2023-06-04T09:55:18;100914.03;;;26.80;25.20
73063;BME280;61230;46.328;19.972;2023-06-04T09:57:48;100918.13;;;26.83;25.69
73063;BME280;61230;46.328;19.972;2023-06-04T10:00:17;100913.31;;;27.08;26.18
73063;BME280;61230;46.328;19.972;2023-06-04T10:02:46;100913.09;;;27.10;25.84
73063;BME280;61230;46.328;19.972;2023-06-04T10:05:15;100915.63;;;26.47;25.56
73063;BME280;61230;46.328;19.972;2023-06-04T10:07:44;100918.94;;;26.72;26.52
73063;BME280;61230;46.328;19.972;2023-06-04T10:10:20;100918.22;;;27.23;26.35
73063;BME280;61230;46.328;19.972;2023-06-04T10:12:51;100910.69;;;27.25;26.72
73063;BME280;61230;46.328;19.972;2023-06-04T10:15:20;100924.91;;;27.55;26.82
73063;BME280;61230;46.328;19.972;2023-06-04T10:17:49;100881.75;;;27.37;27.13
73063;BME280;61230;46.328;19.972;2023-06-04T10:20:18;100916.44;;;27.80;27.56
73063;BME280;61230;46.328;19.972;2023-06-04T10:22:48;100921.81;;;27.91;26.44
73063;BME280;61230;46.328;19.972;2023-06-04T10:25:16;100912.31;;;27.89;26.36
73063;BME280;61230;46.328;19.972;2023-06-04T10:27:45;100910.66;;;28.16;26.42
73063;BME280;61230;46.328;19.972;2023-06-04T10:30:13;100911.13;;;28.13;26.47
73063;BME280;61230;46.328;19.972;2023-06-04T10:32:41;100885.38;;;27.82;26.32
73063;BME280;61230;46.328;19.972;2023-06-04T10:35:09;100906.50;;;27.97;26.74
73063;BME280;61230;46.328;19.972;2023-06-04T10:37:37;100904.03;;;28.24;26.37
73063;BME280;61230;46.328;19.972;2023-06-04T10:40:07;100893.66;;;28.04;27.08
73063;BME280;61230;46.328;19.972;2023-06-04T10:42:41;100901.16;;;28.02;27.05
73063;BME280;61230;46.328;19.972;2023-06-04T10:45:10;100904.44;;;28.49;26.75
73063;BME280;61230;46.328;19.972;2023-06-04T10:47:38;100893.94;;;28.19;26.66
73063;BME280;61230;46.328;19.972;2023-06-04T10:50:10;100900.25;;;28.41;26.77
73063;BME280;61230;46.328;19.972;2023-06-04T10:52:53;100900.59;;;28.45;25.95
73063;BME280;61230;46.328;19.972;2023-06-04T10:55:21;100898.06;;;28.55;26.54
73063;BME280;61230;46.328;19.972;2023-06-04T10:57:59;100884.87;;;28.97;25.80
73063;BME280;61230;46.328;19.972;2023-06-04T11:00:44;100889.53;;;29.01;25.62
73063;BME280;61230;46.328;19.972;2023-06-04T11:03:17;100890.87;;;29.21;24.99
73063;BME280;61230;46.328;19.972;2023-06-04T11:05:46;100890.41;;;28.85;26.31
73063;BME280;61230;46.328;19.972;2023-06-04T11:08:26;100885.56;;;29.47;25.50
73063;BME280;61230;46.328;19.972;2023-06-04T11:10:55;100885.16;;;28.79;26.04
73063;BME280;61230;46.328;19.972;2023-06-04T11:13:24;100857.41;;;28.88;26.52
73063;BME280;61230;46.328;19.972;2023-06-04T11:15:53;100879.91;;;28.72;26.09
73063;BME280;61230;46.328;19.972;2023-06-04T11:18:22;100887.47;;;29.08;26.70
73063;BME280;61230;46.328;19.972;2023-06-04T11:21:00;100879.31;;;29.25;26.14
73063;BME280;61230;46.328;19.972;2023-06-04T11:23:28;100878.28;;;29.53;25.78
73063;BME280;61230;46.328;19.972;2023-06-04T11:25:55;100883.91;;;29.68;26.33
73063;BME280;61230;46.328;19.972;2023-06-04T11:28:23;100879.66;;;29.29;26.43
73063;BME280;61230;46.328;19.972;2023-06-04T11:31:02;100879.66;;;29.77;26.17
73063;BME280;61230;46.328;19.972;2023-06-04T11:33:41;100878.75;;;29.23;25.54
73063;BME280;61230;46.328;19.972;2023-06-04T11:36:10;100842.56;;;29.18;25.57
73063;BME280;61230;46.328;19.972;2023-06-04T11:38:38;100844.16;;;29.14;25.29
73063;BME280;61230;46.328;19.972;2023-06-04T11:41:06;100868.94;;;29.00;25.81
73063;BME280;61230;46.328;19.972;2023-06-04T11:43:34;100830.50;;;28.48;26.77
73063;BME280;61230;46.328;19.972;2023-06-04T11:46:06;100835.84;;;28.98;26.69
73063;BME280;61230;46.328;19.972;2023-06-04T11:48:37;100865.84;;;29.14;26.43
73063;BME280;61230;46.328;19.972;2023-06-04T11:51:08;100877.47;;;28.92;25.83
73063;BME280;61230;46.328;19.972;2023-06-04T11:53:37;100844.34;;;29.07;25.11
73063;BME280;61230;46.328;19.972;2023-06-04T11:56:05;100863.69;;;29.16;26.24
73063;BME280;61230;46.328;19.972;2023-06-04T11:58:33;100869.28;;;28.87;26.51
73063;BME280;61230;46.328;19.972;2023-06-04T12:01:01;100833.63;;;28.95;26.25
73063;BME280;61230;46.328;19.972;2023-06-04T12:03:40;100871.09;;;29.20;26.65
73063;BME280;61230;46.328;19.972;2023-06-04T12:06:19;100863.94;;;29.31;26.20
73063;BME280;61230;46.328;19.972;2023-06-04T12:13:56;100861.25;;;29.14;26.17
73063;BME280;61230;46.328;19.972;2023-06-04T12:16:24;100874.72;;;29.26;26.21
73063;BME280;61230;46.328;19.972;2023-06-04T12:19:04;100838.06;;;28.63;26.59
73063;BME280;61230;46.328;19.972;2023-06-04T12:21:32;100862.31;;;28.91;26.96
73063;BME280;61230;46.328;19.972;2023-06-04T12:26:36;100862.50;;;29.06;27.25
73063;BME280;61230;46.328;19.972;2023-06-04T12:29:16;100854.28;;;29.40;27.33
73063;BME280;61230;46.328;19.972;2023-06-04T12:31:45;100857.72;;;28.75;28.82
73063;BME280;61230;46.328;19.972;2023-06-04T12:34:14;100848.72;;;29.08;28.57
73063;BME280;61230;46.328;19.972;2023-06-04T12:36:41;100847.66;;;29.09;29.48
73063;BME280;61230;46.328;19.972;2023-06-04T12:39:10;100850.97;;;28.94;30.28
73063;BME280;61230;46.328;19.972;2023-06-04T12:41:37;100838.44;;;28.88;31.08
73063;BME280;61230;46.328;19.972;2023-06-04T12:44:05;100836.38;;;28.79;30.84
73063;BME280;61230;46.328;19.972;2023-06-04T12:46:33;100844.41;;;27.90;31.18
73063;BME280;61230;46.328;19.972;2023-06-04T12:49:00;100833.37;;;28.42;31.97
73063;BME280;61230;46.328;19.972;2023-06-04T12:51:28;100839.69;;;28.64;31.07
73063;BME280;61230;46.328;19.972;2023-06-04T12:53:56;100833.13;;;28.60;31.19
73063;BME280;61230;46.328;19.972;2023-06-04T12:56:25;100834.78;;;28.28;31.40
73063;BME280;61230;46.328;19.972;2023-06-04T12:58:53;100825.34;;;28.14;31.51
73063;BME280;61230;46.328;19.972;2023-06-04T13:01:21;100821.22;;;28.44;31.14
73063;BME280;61230;46.328;19.972;2023-06-04T13:03:49;100827.91;;;28.04;32.20